sensor_id;sensor_type;location;lat;lon;timestamp;P1;durP1;ratioP1;P2;durP2;ratioP2
14903;SDS011;7543;53.148;8.234;2023-04-03T00:00:43;1.73;;;0.97;;
14903;SDS011;7543;53.148;8.234;2023-04-03T00:03:12;1.90;;;1.10;;
14903;SDS011;7543;53.148;8.234;2023-04-03T00:05:41;2.40;;;1.13;;
14903;SDS011;7543;53.148;8.234;2023-04-03T00:08:09;3.50;;;1.07;;
14903;SDS011;7543;53.148;8.234;2023-04-03T00:10:38;5.17;;;1.00;;
14903;SDS011;7543;53.148;8.234;2023-04-03T00:13:06;2.70;;;1.07;;
14903;SDS011;7543;53.148;8.234;2023-04-03T00:15:35;9.07;;;1.30;;
14903;SDS011;7543;53.148;8.234;2023-04-03T00:18:04;1.37;;;0.90;;
14903;SDS011;7543;53.148;8.234;2023-04-03T00:20:34;2.70;;;1.00;;
14903;SDS011;7543;53.148;8.234;2023-04-03T00:23:03;2.03;;;1.20;;
14903;SDS011;7543;53.148;8.234;2023-04-03T00:25:31;1.67;;;0.80;;
14903;SDS011;7543;53.148;8.234;2023-04-03T00:28:00;2.83;;;0.90;;
14903;SDS011;7543;53.148;8.234;2023-04-03T00:30:28;4.77;;;1.10;;
14903;SDS011;7543;53.148;8.234;2023-04-03T00:32:57;1.90;;;1.10;;
14903;SDS011;7543;53.148;8.234;2023-04-03T00:35:25;4.57;;;1.20;;
14903;SDS011;7543;53.148;8.234;2023-04-03T00:37:55;5.67;;;1.43;;
14903;SDS011;7543;53.148;8.234;2023-04-03T00:40:25;8.03;;;1.37;;
14903;SDS011;7543;53.148;8.234;2023-04-03T00:42:55;1.77;;;0.87;;
14903;SDS011;7543;53.148;8.234;2023-04-03T00:45:27;3.00;;;0.90;;
14903;SDS011;7543;53.148;8.234;2023-04-03T00:48:00;7.07;;;1.23;;
14903;SDS011;7543;53.148;8.234;2023-04-03T00:50:29;3.13;;;1.20;;
14903;SDS011;7543;53.148;8.234;2023-04-03T00:52:59;4.17;;;1.03;;
14903;SDS011;7543;53.148;8.234;2023-04-03T00:55:28;3.40;;;1.07;;
14903;SDS011;7543;53.148;8.234;2023-04-03T00:57:58;3.10;;;1.10;;
14903;SDS011;7543;53.148;8.234;2023-04-03T01:00:27;2.33;;;0.90;;
14903;SDS011;7543;53.148;8.234;2023-04-03T01:02:56;2.23;;;1.20;;
14903;SDS011;7543;53.148;8.234;2023-04-03T01:05:25;3.80;;;1.00;;
14903;SDS011;7543;53.148;8.234;2023-04-03T01:07:54;4.20;;;1.27;;
14903;SDS011;7543;53.148;8.234;2023-04-03T01:10:24;3.07;;;1.10;;
14903;SDS011;7543;53.148;8.234;2023-04-03T01:12:52;3.50;;;1.03;;
14903;SDS011;7543;53.148;8.234;2023-04-03T01:15:22;2.07;;;1.10;;
14903;SDS011;7543;53.148;8.234;2023-04-03T01:17:52;2.77;;;1.03;;
14903;SDS011;7543;53.148;8.234;2023-04-03T01:23:43;4.07;;;1.70;;
14903;SDS011;7543;53.148;8.234;2023-04-03T01:26:23;2.83;;;1.07;;
14903;SDS011;7543;53.148;8.234;2023-04-03T01:28:53;4.30;;;1.40;;
14903;SDS011;7543;53.148;8.234;2023-04-03T01:31:23;3.73;;;1.30;;
14903;SDS011;7543;53.148;8.234;2023-04-03T01:33:56;2.50;;;1.10;;
14903;SDS011;7543;53.148;8.234;2023-04-03T01:36:25;3.23;;;1.10;;
14903;SDS011;7543;53.148;8.234;2023-04-03T01:38:56;1.17;;;1.00;;
14903;SDS011;7543;53.148;8.234;2023-04-03T01:41:25;2.67;;;1.40;;
14903;SDS011;7543;53.148;8.234;2023-04-03T01:44:00;2.93;;;1.07;;
14903;SDS011;7543;53.148;8.234;2023-04-03T01:46:29;2.33;;;1.00;;
14903;SDS011;7543;53.148;8.234;2023-04-03T01:48:59;2.97;;;1.27;;
14903;SDS011;7543;53.148;8.234;2023-04-03T01:51:27;2.40;;;1.10;;
14903;SDS011;7543;53.148;8.234;2023-04-03T01:53:55;4.53;;;1.40;;
14903;SDS011;7543;53.148;8.234;2023-04-03T01:56:24;4.60;;;1.30;;
14903;SDS011;7543;53.148;8.234;2023-04-03T01:58:53;1.13;;;1.03;;
14903;SDS011;7543;53.148;8.234;2023-04-03T02:01:22;2.37;;;1.17;;
14903;SDS011;7543;53.148;8.234;2023-04-03T02:03:52;8.53;;;1.20;;
14903;SDS011;7543;53.148;8.234;2023-04-03T02:06:22;3.63;;;0.90;;
14903;SDS011;7543;53.148;8.234;2023-04-03T02:08:51;2.80;;;1.10;;
14903;SDS011;7543;53.148;8.234;2023-04-03T02:11:19;2.43;;;1.23;;
14903;SDS011;7543;53.148;8.234;2023-04-03T02:13:47;4.63;;;1.17;;
14903;SDS011;7543;53.148;8.234;2023-04-03T02:16:16;2.07;;;1.10;;
14903;SDS011;7543;53.148;8.234;2023-04-03T02:18:44;1.27;;;0.93;;
14903;SDS011;7543;53.148;8.234;2023-04-03T02:21:13;2.63;;;1.20;;
14903;SDS011;7543;53.148;8.234;2023-04-03T02:23:42;1.97;;;1.27;;
14903;SDS011;7543;53.148;8.234;2023-04-03T02:26:13;2.50;;;1.40;;
14903;SDS011;7543;53.148;8.234;2023-04-03T02:28:45;3.47;;;1.30;;
14903;SDS011;7543;53.148;8.234;2023-04-03T02:31:13;2.17;;;1.30;;
14903;SDS011;7543;53.148;8.234;2023-04-03T02:33:43;3.87;;;1.23;;
14903;SDS011;7543;53.148;8.234;2023-04-03T02:36:14;4.50;;;1.30;;
14903;SDS011;7543;53.148;8.234;2023-04-03T02:38:49;1.37;;;1.00;;
14903;SDS011;7543;53.148;8.234;2023-04-03T02:41:17;4.77;;;1.50;;
14903;SDS011;7543;53.148;8.234;2023-04-03T02:43:47;3.83;;;1.50;;
14903;SDS011;7543;53.148;8.234;2023-04-03T02:46:16;2.07;;;1.33;;
14903;SDS011;7543;53.148;8.234;2023-04-03T02:48:45;5.80;;;1.20;;
14903;SDS011;7543;53.148;8.234;2023-04-03T02:51:13;2.07;;;1.23;;
14903;SDS011;7543;53.148;8.234;2023-04-03T02:53:42;2.93;;;1.33;;
14903;SDS011;7543;53.148;8.234;2023-04-03T02:56:17;1.80;;;1.03;;
14903;SDS011;7543;53.148;8.234;2023-04-03T02:58:46;3.60;;;1.43;;
14903;SDS011;7543;53.148;8.234;2023-04-03T03:01:17;3.10;;;1.20;;
14903;SDS011;7543;53.148;8.234;2023-04-03T03:03:45;2.20;;;1.20;;
14903;SDS011;7543;53.148;8.234;2023-04-03T03:06:14;5.17;;;1.63;;
14903;SDS011;7543;53.148;8.234;2023-04-03T03:08:43;4.90;;;1.30;;
14903;SDS011;7543;53.148;8.234;2023-04-03T03:11:12;5.83;;;1.47;;
14903;SDS011;7543;53.148;8.234;2023-04-03T03:13:41;1.30;;;1.07;;
14903;SDS011;7543;53.148;8.234;2023-04-03T03:16:10;1.30;;;1.10;;
14903;SDS011;7543;53.148;8.234;2023-04-03T03:18:38;4.40;;;1.40;;
14903;SDS011;7543;53.148;8.234;2023-04-03T03:21:07;4.00;;;1.50;;
14903;SDS011;7543;53.148;8.234;2023-04-03T03:23:37;2.07;;;1.10;;
14903;SDS011;7543;53.148;8.234;2023-04-03T03:26:07;2.40;;;1.43;;
14903;SDS011;7543;53.148;8.234;2023-04-03T03:28:37;3.73;;;1.10;;
14903;SDS011;7543;53.148;8.234;2023-04-03T03:31:08;4.00;;;1.57;;
14903;SDS011;7543;53.148;8.234;2023-04-03T03:33:39;2.73;;;1.20;;
14903;SDS011;7543;53.148;8.234;2023-04-03T03:36:07;3.50;;;1.40;;
14903;SDS011;7543;53.148;8.234;2023-04-03T03:38:36;5.20;;;1.37;;
14903;SDS011;7543;53.148;8.234;2023-04-03T03:41:05;4.13;;;1.67;;
14903;SDS011;7543;53.148;8.234;2023-04-03T03:43:35;6.90;;;1.60;;
14903;SDS011;7543;53.148;8.234;2023-04-03T03:46:05;6.40;;;1.57;;
14903;SDS011;7543;53.148;8.234;2023-04-03T03:48:35;3.97;;;1.30;;
14903;SDS011;7543;53.148;8.234;2023-04-03T03:51:03;3.93;;;1.77;;
14903;SDS011;7543;53.148;8.234;2023-04-03T03:53:36;4.07;;;1.43;;
14903;SDS011;7543;53.148;8.234;2023-04-03T03:56:07;3.77;;;1.33;;
14903;SDS011;7543;53.148;8.234;2023-04-03T03:58:38;2.47;;;1.20;;
14903;SDS011;7543;53.148;8.234;2023-04-03T04:01:07;5.57;;;1.43;;
14903;SDS011;7543;53.148;8.234;2023-04-03T04:03:42;4.93;;;1.53;;
14903;SDS011;7543;53.148;8.234;2023-04-03T04:06:14;2.00;;;1.20;;
14903;SDS011;7543;53.148;8.234;2023-04-03T04:08:42;4.10;;;1.53;;
14903;SDS011;7543;53.148;8.234;2023-04-03T04:11:12;6.87;;;1.90;;
14903;SDS011;7543;53.148;8.234;2023-04-03T04:13:42;4.50;;;1.37;;
14903;SDS011;7543;53.148;8.234;2023-04-03T04:16:12;4.10;;;1.60;;
14903;SDS011;7543;53.148;8.234;2023-04-03T04:18:42;3.87;;;1.67;;
14903;SDS011;7543;53.148;8.234;2023-04-03T04:21:11;2.17;;;1.40;;
14903;SDS011;7543;53.148;8.234;2023-04-03T04:23:40;3.87;;;1.70;;
14903;SDS011;7543;53.148;8.234;2023-04-03T04:26:09;2.83;;;1.50;;
14903;SDS011;7543;53.148;8.234;2023-04-03T04:28:39;4.70;;;1.60;;
14903;SDS011;7543;53.148;8.234;2023-04-03T04:31:07;3.57;;;1.27;;
14903;SDS011;7543;53.148;8.234;2023-04-03T04:33:36;2.97;;;1.60;;
14903;SDS011;7543;53.148;8.234;2023-04-03T04:36:08;2.80;;;1.40;;
14903;SDS011;7543;53.148;8.234;2023-04-03T04:38:37;4.43;;;2.00;;
14903;SDS011;7543;53.148;8.234;2023-04-03T04:41:06;3.60;;;1.43;;
14903;SDS011;7543;53.148;8.234;2023-04-03T04:43:36;6.37;;;1.30;;
14903;SDS011;7543;53.148;8.234;2023-04-03T04:46:05;7.10;;;1.73;;
14903;SDS011;7543;53.148;8.234;2023-04-03T04:48:39;2.27;;;1.40;;
14903;SDS011;7543;53.148;8.234;2023-04-03T04:51:10;5.10;;;1.73;;
14903;SDS011;7543;53.148;8.234;2023-04-03T04:53:39;5.57;;;1.70;;
14903;SDS011;7543;53.148;8.234;2023-04-03T04:56:09;4.23;;;2.03;;
14903;SDS011;7543;53.148;8.234;2023-04-03T04:58:39;2.60;;;1.50;;
14903;SDS011;7543;53.148;8.234;2023-04-03T05:01:09;2.67;;;1.47;;
14903;SDS011;7543;53.148;8.234;2023-04-03T05:03:52;1.57;;;1.40;;
14903;SDS011;7543;53.148;8.234;2023-04-03T05:06:23;4.07;;;1.80;;
14903;SDS011;7543;53.148;8.234;2023-04-03T05:08:52;2.67;;;1.50;;
14903;SDS011;7543;53.148;8.234;2023-04-03T05:11:21;4.43;;;1.87;;
14903;SDS011;7543;53.148;8.234;2023-04-03T05:13:51;2.70;;;1.40;;
14903;SDS011;7543;53.148;8.234;2023-04-03T05:16:20;3.63;;;1.43;;
14903;SDS011;7543;53.148;8.234;2023-04-03T05:18:49;7.77;;;1.93;;
14903;SDS011;7543;53.148;8.234;2023-04-03T05:21:20;5.33;;;1.70;;
14903;SDS011;7543;53.148;8.234;2023-04-03T05:23:52;3.47;;;1.50;;
14903;SDS011;7543;53.148;8.234;2023-04-03T05:26:21;2.03;;;1.50;;
14903;SDS011;7543;53.148;8.234;2023-04-03T05:28:51;3.83;;;1.53;;
14903;SDS011;7543;53.148;8.234;2023-04-03T05:31:20;3.50;;;1.93;;
14903;SDS011;7543;53.148;8.234;2023-04-03T05:33:50;2.90;;;1.60;;
14903;SDS011;7543;53.148;8.234;2023-04-03T05:36:18;2.67;;;1.70;;
14903;SDS011;7543;53.148;8.234;2023-04-03T05:38:52;5.50;;;1.70;;
14903;SDS011;7543;53.148;8.234;2023-04-03T05:41:23;4.60;;;1.90;;
14903;SDS011;7543;53.148;8.234;2023-04-03T05:43:51;3.53;;;1.50;;
14903;SDS011;7543;53.148;8.234;2023-04-03T05:46:21;2.23;;;1.50;;
14903;SDS011;7543;53.148;8.234;2023-04-03T05:48:54;3.90;;;1.70;;
14903;SDS011;7543;53.148;8.234;2023-04-03T05:51:28;4.57;;;1.70;;
14903;SDS011;7543;53.148;8.234;2023-04-03T05:54:05;4.70;;;1.63;;
14903;SDS011;7543;53.148;8.234;2023-04-03T05:56:37;4.33;;;1.47;;
14903;SDS011;7543;53.148;8.234;2023-04-03T05:59:05;4.43;;;1.77;;
14903;SDS011;7543;53.148;8.234;2023-04-03T06:01:35;3.10;;;1.80;;
14903;SDS011;7543;53.148;8.234;2023-04-03T06:04:04;3.63;;;1.33;;
14903;SDS011;7543;53.148;8.234;2023-04-03T06:06:45;3.13;;;1.70;;
14903;SDS011;7543;53.148;8.234;2023-04-03T06:09:16;5.00;;;1.70;;
14903;SDS011;7543;53.148;8.234;2023-04-03T06:11:45;4.87;;;2.10;;
14903;SDS011;7543;53.148;8.234;2023-04-03T06:14:13;3.03;;;1.60;;
14903;SDS011;7543;53.148;8.234;2023-04-03T06:16:42;2.73;;;1.67;;
14903;SDS011;7543;53.148;8.234;2023-04-03T06:19:11;6.00;;;2.30;;
14903;SDS011;7543;53.148;8.234;2023-04-03T06:21:45;2.67;;;1.70;;
14903;SDS011;7543;53.148;8.234;2023-04-03T06:24:16;4.80;;;1.87;;
14903;SDS011;7543;53.148;8.234;2023-04-03T06:26:45;6.97;;;1.70;;
14903;SDS011;7543;53.148;8.234;2023-04-03T06:29:13;1.83;;;1.10;;
14903;SDS011;7543;53.148;8.234;2023-04-03T06:31:42;6.30;;;1.97;;
14903;SDS011;7543;53.148;8.234;2023-04-03T06:34:10;6.23;;;1.90;;
14903;SDS011;7543;53.148;8.234;2023-04-03T06:36:39;4.17;;;2.10;;
14903;SDS011;7543;53.148;8.234;2023-04-03T06:39:08;6.27;;;2.10;;
14903;SDS011;7543;53.148;8.234;2023-04-03T06:41:39;3.23;;;1.87;;
14903;SDS011;7543;53.148;8.234;2023-04-03T06:44:07;3.87;;;1.90;;
14903;SDS011;7543;53.148;8.234;2023-04-03T06:46:38;3.13;;;1.70;;
14903;SDS011;7543;53.148;8.234;2023-04-03T06:49:07;5.40;;;2.00;;
14903;SDS011;7543;53.148;8.234;2023-04-03T06:51:35;3.70;;;2.03;;
14903;SDS011;7543;53.148;8.234;2023-04-03T06:54:04;3.70;;;1.80;;
14903;SDS011;7543;53.148;8.234;2023-04-03T06:56:33;5.70;;;1.73;;
14903;SDS011;7543;53.148;8.234;2023-04-03T06:59:03;5.90;;;1.73;;
14903;SDS011;7543;53.148;8.234;2023-04-03T07:01:32;7.30;;;2.10;;
14903;SDS011;7543;53.148;8.234;2023-04-03T07:04:00;3.80;;;1.80;;
14903;SDS011;7543;53.148;8.234;2023-04-03T07:06:28;3.27;;;1.70;;
14903;SDS011;7543;53.148;8.234;2023-04-03T07:08:58;6.37;;;2.00;;
14903;SDS011;7543;53.148;8.234;2023-04-03T07:11:27;5.30;;;1.93;;
14903;SDS011;7543;53.148;8.234;2023-04-03T07:13:55;2.97;;;1.80;;
14903;SDS011;7543;53.148;8.234;2023-04-03T07:16:25;4.07;;;1.90;;
14903;SDS011;7543;53.148;8.234;2023-04-03T07:18:54;6.07;;;1.83;;
14903;SDS011;7543;53.148;8.234;2023-04-03T07:21:22;4.97;;;2.17;;
14903;SDS011;7543;53.148;8.234;2023-04-03T07:23:51;9.30;;;2.10;;
14903;SDS011;7543;53.148;8.234;2023-04-03T07:26:19;4.83;;;2.03;;
14903;SDS011;7543;53.148;8.234;2023-04-03T07:28:49;9.23;;;2.03;;
14903;SDS011;7543;53.148;8.234;2023-04-03T07:31:23;3.67;;;1.63;;
14903;SDS011;7543;53.148;8.234;2023-04-03T07:34:10;4.63;;;2.40;;
14903;SDS011;7543;53.148;8.234;2023-04-03T07:36:38;6.10;;;2.10;;
14903;SDS011;7543;53.148;8.234;2023-04-03T07:39:07;6.57;;;2.00;;
14903;SDS011;7543;53.148;8.234;2023-04-03T07:41:35;3.10;;;1.80;;
14903;SDS011;7543;53.148;8.234;2023-04-03T07:44:04;5.40;;;1.80;;
14903;SDS011;7543;53.148;8.234;2023-04-03T07:46:34;4.20;;;1.47;;
14903;SDS011;7543;53.148;8.234;2023-04-03T07:49:02;5.10;;;1.50;;
14903;SDS011;7543;53.148;8.234;2023-04-03T07:51:30;2.60;;;1.47;;
14903;SDS011;7543;53.148;8.234;2023-04-03T07:53:58;4.60;;;1.80;;
14903;SDS011;7543;53.148;8.234;2023-04-03T07:56:27;5.40;;;1.83;;
14903;SDS011;7543;53.148;8.234;2023-04-03T07:58:55;4.30;;;2.00;;
14903;SDS011;7543;53.148;8.234;2023-04-03T08:01:24;5.00;;;1.87;;
14903;SDS011;7543;53.148;8.234;2023-04-03T08:03:54;6.90;;;1.67;;
14903;SDS011;7543;53.148;8.234;2023-04-03T08:06:22;5.67;;;2.20;;
14903;SDS011;7543;53.148;8.234;2023-04-03T08:08:50;4.07;;;1.97;;
14903;SDS011;7543;53.148;8.234;2023-04-03T08:11:19;3.23;;;1.70;;
14903;SDS011;7543;53.148;8.234;2023-04-03T08:13:47;6.70;;;1.70;;
14903;SDS011;7543;53.148;8.234;2023-04-03T08:16:17;6.07;;;1.87;;
14903;SDS011;7543;53.148;8.234;2023-04-03T08:18:46;3.93;;;1.80;;
14903;SDS011;7543;53.148;8.234;2023-04-03T08:21:16;6.30;;;2.03;;
14903;SDS011;7543;53.148;8.234;2023-04-03T08:23:44;4.97;;;1.60;;
14903;SDS011;7543;53.148;8.234;2023-04-03T08:26:13;3.67;;;1.73;;
14903;SDS011;7543;53.148;8.234;2023-04-03T08:28:43;3.10;;;1.67;;
14903;SDS011;7543;53.148;8.234;2023-04-03T08:31:12;2.83;;;1.43;;
14903;SDS011;7543;53.148;8.234;2023-04-03T08:33:42;2.07;;;1.33;;
14903;SDS011;7543;53.148;8.234;2023-04-03T08:36:17;2.50;;;1.60;;
14903;SDS011;7543;53.148;8.234;2023-04-03T08:38:47;2.80;;;1.50;;
14903;SDS011;7543;53.148;8.234;2023-04-03T08:41:24;4.53;;;1.67;;
14903;SDS011;7543;53.148;8.234;2023-04-03T08:44:07;4.00;;;1.57;;
14903;SDS011;7543;53.148;8.234;2023-04-03T08:49:30;2.57;;;1.50;;
14903;SDS011;7543;53.148;8.234;2023-04-03T08:52:02;4.83;;;1.33;;
14903;SDS011;7543;53.148;8.234;2023-04-03T08:54:33;3.17;;;0.90;;
14903;SDS011;7543;53.148;8.234;2023-04-03T08:57:03;2.30;;;1.10;;
14903;SDS011;7543;53.148;8.234;2023-04-03T08:59:33;1.90;;;0.83;;
14903;SDS011;7543;53.148;8.234;2023-04-03T09:02:04;3.13;;;1.10;;
14903;SDS011;7543;53.148;8.234;2023-04-03T09:04:41;1.93;;;1.07;;
14903;SDS011;7543;53.148;8.234;2023-04-03T09:07:14;2.87;;;1.20;;
14903;SDS011;7543;53.148;8.234;2023-04-03T09:09:46;4.47;;;1.40;;
14903;SDS011;7543;53.148;8.234;2023-04-03T09:12:18;1.93;;;1.40;;
14903;SDS011;7543;53.148;8.234;2023-04-03T09:14:53;4.03;;;1.33;;
14903;SDS011;7543;53.148;8.234;2023-04-03T09:17:30;7.80;;;1.23;;
14903;SDS011;7543;53.148;8.234;2023-04-03T09:20:07;3.07;;;1.30;;
14903;SDS011;7543;53.148;8.234;2023-04-03T09:22:42;2.60;;;1.30;;
14903;SDS011;7543;53.148;8.234;2023-04-03T09:25:12;2.10;;;0.80;;
14903;SDS011;7543;53.148;8.234;2023-04-03T09:27:42;2.90;;;1.10;;
14903;SDS011;7543;53.148;8.234;2023-04-03T09:30:12;3.03;;;1.00;;
14903;SDS011;7543;53.148;8.234;2023-04-03T09:32:43;2.60;;;1.00;;
14903;SDS011;7543;53.148;8.234;2023-04-03T09:35:16;1.67;;;0.80;;
14903;SDS011;7543;53.148;8.234;2023-04-03T09:37:49;3.20;;;1.03;;
14903;SDS011;7543;53.148;8.234;2023-04-03T09:40:29;0.83;;;0.80;;
14903;SDS011;7543;53.148;8.234;2023-04-03T09:43:02;1.10;;;0.77;;
14903;SDS011;7543;53.148;8.234;2023-04-03T09:45:31;1.00;;;0.80;;
14903;SDS011;7543;53.148;8.234;2023-04-03T09:48:05;2.57;;;0.90;;
14903;SDS011;7543;53.148;8.234;2023-04-03T09:50:35;0.97;;;0.70;;
14903;SDS011;7543;53.148;8.234;2023-04-03T09:53:06;2.83;;;0.73;;
14903;SDS011;7543;53.148;8.234;2023-04-03T09:55:41;1.17;;;0.60;;
14903;SDS011;7543;53.148;8.234;2023-04-03T09:58:23;1.83;;;0.80;;
14903;SDS011;7543;53.148;8.234;2023-04-03T10:00:56;1.83;;;0.93;;
14903;SDS011;7543;53.148;8.234;2023-04-03T10:03:27;4.27;;;0.93;;
14903;SDS011;7543;53.148;8.234;2023-04-03T10:05:57;2.23;;;0.97;;
14903;SDS011;7543;53.148;8.234;2023-04-03T10:08:29;2.03;;;0.93;;
14903;SDS011;7543;53.148;8.234;2023-04-03T10:11:09;2.43;;;0.93;;
14903;SDS011;7543;53.148;8.234;2023-04-03T10:16:29;5.80;;;1.07;;
14903;SDS011;7543;53.148;8.234;2023-04-03T10:19:05;3.47;;;1.30;;
14903;SDS011;7543;53.148;8.234;2023-04-03T10:21:40;1.83;;;0.90;;
14903;SDS011;7543;53.148;8.234;2023-04-03T10:24:14;3.23;;;1.10;;
14903;SDS011;7543;53.148;8.234;2023-04-03T10:26:50;3.23;;;1.00;;
14903;SDS011;7543;53.148;8.234;2023-04-03T10:29:28;2.83;;;1.10;;
14903;SDS011;7543;53.148;8.234;2023-04-03T10:32:09;4.87;;;1.00;;
14903;SDS011;7543;53.148;8.234;2023-04-03T10:34:43;3.90;;;0.97;;
14903;SDS011;7543;53.148;8.234;2023-04-03T10:37:13;2.37;;;0.93;;
14903;SDS011;7543;53.148;8.234;2023-04-03T10:39:52;1.33;;;0.67;;
14903;SDS011;7543;53.148;8.234;2023-04-03T10:42:24;3.33;;;0.97;;
14903;SDS011;7543;53.148;8.234;2023-04-03T10:45:08;1.40;;;0.70;;
14903;SDS011;7543;53.148;8.234;2023-04-03T10:47:47;0.90;;;0.73;;
14903;SDS011;7543;53.148;8.234;2023-04-03T10:50:37;1.20;;;0.60;;
14903;SDS011;7543;53.148;8.234;2023-04-03T10:53:10;2.07;;;0.70;;
14903;SDS011;7543;53.148;8.234;2023-04-03T10:55:48;2.43;;;0.93;;
14903;SDS011;7543;53.148;8.234;2023-04-03T10:58:20;1.93;;;0.70;;
14903;SDS011;7543;53.148;8.234;2023-04-03T11:00:57;1.67;;;0.67;;
14903;SDS011;7543;53.148;8.234;2023-04-03T11:03:30;2.67;;;0.80;;
14903;SDS011;7543;53.148;8.234;2023-04-03T11:06:02;1.37;;;0.73;;
14903;SDS011;7543;53.148;8.234;2023-04-03T11:08:35;3.07;;;0.87;;
14903;SDS011;7543;53.148;8.234;2023-04-03T11:11:09;1.53;;;1.00;;
14903;SDS011;7543;53.148;8.234;2023-04-03T11:13:41;2.20;;;1.00;;
14903;SDS011;7543;53.148;8.234;2023-04-03T11:16:14;2.73;;;0.60;;
14903;SDS011;7543;53.148;8.234;2023-04-03T11:18:48;0.80;;;0.50;;
14903;SDS011;7543;53.148;8.234;2023-04-03T11:21:20;1.70;;;0.70;;
14903;SDS011;7543;53.148;8.234;2023-04-03T11:23:50;1.50;;;0.80;;
14903;SDS011;7543;53.148;8.234;2023-04-03T11:26:21;1.50;;;0.70;;
14903;SDS011;7543;53.148;8.234;2023-04-03T11:28:56;1.53;;;0.80;;
14903;SDS011;7543;53.148;8.234;2023-04-03T11:31:29;1.43;;;0.70;;
14903;SDS011;7543;53.148;8.234;2023-04-03T11:34:07;1.70;;;0.80;;
14903;SDS011;7543;53.148;8.234;2023-04-03T11:36:42;4.07;;;0.77;;
14903;SDS011;7543;53.148;8.234;2023-04-03T11:39:17;3.50;;;0.80;;
14903;SDS011;7543;53.148;8.234;2023-04-03T11:41:50;1.70;;;0.80;;
14903;SDS011;7543;53.148;8.234;2023-04-03T11:44:29;1.80;;;0.70;;
14903;SDS011;7543;53.148;8.234;2023-04-03T11:47:01;1.17;;;0.57;;
14903;SDS011;7543;53.148;8.234;2023-04-03T11:58:32;1.77;;;0.90;;
14903;SDS011;7543;53.148;8.234;2023-04-03T12:01:05;2.20;;;0.70;;
14903;SDS011;7543;53.148;8.234;2023-04-03T12:12:55;3.87;;;0.73;;
14903;SDS011;7543;53.148;8.234;2023-04-03T12:18:31;3.27;;;0.83;;
14903;SDS011;7543;53.148;8.234;2023-04-03T12:24:34;1.50;;;0.80;;
14903;SDS011;7543;53.148;8.234;2023-04-03T12:27:04;1.47;;;0.87;;
14903;SDS011;7543;53.148;8.234;2023-04-03T12:29:38;1.10;;;0.70;;
14903;SDS011;7543;53.148;8.234;2023-04-03T12:32:17;1.87;;;0.60;;
14903;SDS011;7543;53.148;8.234;2023-04-03T12:34:55;0.60;;;0.60;;
14903;SDS011;7543;53.148;8.234;2023-04-03T12:37:39;2.90;;;1.10;;
14903;SDS011;7543;53.148;8.234;2023-04-03T12:40:25;1.50;;;0.90;;
14903;SDS011;7543;53.148;8.234;2023-04-03T12:43:00;0.60;;;0.60;;
14903;SDS011;7543;53.148;8.234;2023-04-03T12:45:39;0.70;;;0.53;;
14903;SDS011;7543;53.148;8.234;2023-04-03T12:48:13;1.40;;;0.63;;
14903;SDS011;7543;53.148;8.234;2023-04-03T12:50:43;3.87;;;0.77;;
14903;SDS011;7543;53.148;8.234;2023-04-03T12:53:13;3.03;;;0.90;;
14903;SDS011;7543;53.148;8.234;2023-04-03T12:55:44;0.83;;;0.60;;
14903;SDS011;7543;53.148;8.234;2023-04-03T12:58:13;4.27;;;0.80;;
14903;SDS011;7543;53.148;8.234;2023-04-03T13:00:43;3.37;;;0.70;;
14903;SDS011;7543;53.148;8.234;2023-04-03T13:03:23;1.20;;;0.80;;
14903;SDS011;7543;53.148;8.234;2023-04-03T13:05:54;2.37;;;0.90;;
14903;SDS011;7543;53.148;8.234;2023-04-03T13:08:25;1.87;;;0.77;;
14903;SDS011;7543;53.148;8.234;2023-04-03T13:10:54;2.83;;;0.93;;
14903;SDS011;7543;53.148;8.234;2023-04-03T13:13:24;3.27;;;0.87;;
14903;SDS011;7543;53.148;8.234;2023-04-03T13:15:53;3.13;;;0.90;;
14903;SDS011;7543;53.148;8.234;2023-04-03T13:18:24;2.87;;;0.77;;
14903;SDS011;7543;53.148;8.234;2023-04-03T13:20:56;1.13;;;0.80;;
14903;SDS011;7543;53.148;8.234;2023-04-03T13:23:27;1.83;;;0.83;;
14903;SDS011;7543;53.148;8.234;2023-04-03T13:25:56;2.43;;;1.00;;
14903;SDS011;7543;53.148;8.234;2023-04-03T13:28:30;0.93;;;0.70;;
14903;SDS011;7543;53.148;8.234;2023-04-03T13:31:02;0.77;;;0.63;;
14903;SDS011;7543;53.148;8.234;2023-04-03T13:33:34;1.33;;;0.60;;
14903;SDS011;7543;53.148;8.234;2023-04-03T13:36:06;1.10;;;0.80;;
14903;SDS011;7543;53.148;8.234;2023-04-03T13:38:38;1.37;;;0.80;;
14903;SDS011;7543;53.148;8.234;2023-04-03T13:41:21;1.07;;;0.70;;
14903;SDS011;7543;53.148;8.234;2023-04-03T13:43:52;0.80;;;0.70;;
14903;SDS011;7543;53.148;8.234;2023-04-03T13:46:25;4.10;;;0.90;;
14903;SDS011;7543;53.148;8.234;2023-04-03T13:48:56;1.67;;;0.83;;
14903;SDS011;7543;53.148;8.234;2023-04-03T13:51:45;2.13;;;0.93;;
14903;SDS011;7543;53.148;8.234;2023-04-03T13:54:17;2.53;;;0.77;;
14903;SDS011;7543;53.148;8.234;2023-04-03T13:56:46;1.77;;;0.77;;
14903;SDS011;7543;53.148;8.234;2023-04-03T13:59:22;1.60;;;0.80;;
14903;SDS011;7543;53.148;8.234;2023-04-03T14:01:52;1.20;;;0.70;;
14903;SDS011;7543;53.148;8.234;2023-04-03T14:04:24;1.33;;;1.00;;
14903;SDS011;7543;53.148;8.234;2023-04-03T14:06:54;0.63;;;0.63;;
14903;SDS011;7543;53.148;8.234;2023-04-03T14:09:23;2.07;;;0.83;;
14903;SDS011;7543;53.148;8.234;2023-04-03T14:11:53;1.13;;;0.83;;
14903;SDS011;7543;53.148;8.234;2023-04-03T14:14:23;2.63;;;1.00;;
14903;SDS011;7543;53.148;8.234;2023-04-03T14:16:56;1.27;;;0.80;;
14903;SDS011;7543;53.148;8.234;2023-04-03T14:19:29;3.50;;;0.77;;
14903;SDS011;7543;53.148;8.234;2023-04-03T14:21:59;1.47;;;0.67;;
14903;SDS011;7543;53.148;8.234;2023-04-03T14:24:28;1.00;;;0.70;;
14903;SDS011;7543;53.148;8.234;2023-04-03T14:26:57;3.37;;;0.77;;
14903;SDS011;7543;53.148;8.234;2023-04-03T14:29:27;0.60;;;0.60;;
14903;SDS011;7543;53.148;8.234;2023-04-03T14:31:55;2.37;;;0.67;;
14903;SDS011;7543;53.148;8.234;2023-04-03T14:34:23;2.80;;;1.00;;
14903;SDS011;7543;53.148;8.234;2023-04-03T14:36:53;2.60;;;0.80;;
14903;SDS011;7543;53.148;8.234;2023-04-03T14:39:21;1.30;;;0.90;;
14903;SDS011;7543;53.148;8.234;2023-04-03T14:41:50;1.70;;;1.17;;
14903;SDS011;7543;53.148;8.234;2023-04-03T14:44:18;2.60;;;1.00;;
14903;SDS011;7543;53.148;8.234;2023-04-03T14:46:46;2.60;;;1.20;;
14903;SDS011;7543;53.148;8.234;2023-04-03T14:49:15;2.43;;;1.13;;
14903;SDS011;7543;53.148;8.234;2023-04-03T14:51:47;2.73;;;1.10;;
14903;SDS011;7543;53.148;8.234;2023-04-03T14:54:18;3.17;;;1.07;;
14903;SDS011;7543;53.148;8.234;2023-04-03T14:56:52;2.07;;;1.00;;
14903;SDS011;7543;53.148;8.234;2023-04-03T14:59:20;2.47;;;1.00;;
14903;SDS011;7543;53.148;8.234;2023-04-03T15:01:49;1.23;;;0.73;;
14903;SDS011;7543;53.148;8.234;2023-04-03T15:04:18;3.83;;;1.30;;
14903;SDS011;7543;53.148;8.234;2023-04-03T15:06:48;1.17;;;0.70;;
14903;SDS011;7543;53.148;8.234;2023-04-03T15:09:21;1.97;;;0.87;;
14903;SDS011;7543;53.148;8.234;2023-04-03T15:11:51;1.17;;;0.73;;
14903;SDS011;7543;53.148;8.234;2023-04-03T15:14:21;0.90;;;0.60;;
14903;SDS011;7543;53.148;8.234;2023-04-03T15:16:49;1.80;;;0.97;;
14903;SDS011;7543;53.148;8.234;2023-04-03T15:19:19;2.53;;;0.80;;
14903;SDS011;7543;53.148;8.234;2023-04-03T15:21:47;1.43;;;0.90;;
14903;SDS011;7543;53.148;8.234;2023-04-03T15:24:16;1.10;;;0.80;;
14903;SDS011;7543;53.148;8.234;2023-04-03T15:26:45;2.40;;;0.70;;
14903;SDS011;7543;53.148;8.234;2023-04-03T15:29:14;1.87;;;1.33;;
14903;SDS011;7543;53.148;8.234;2023-04-03T15:31:42;3.07;;;0.70;;
14903;SDS011;7543;53.148;8.234;2023-04-03T15:34:11;2.70;;;0.80;;
14903;SDS011;7543;53.148;8.234;2023-04-03T15:36:39;2.27;;;1.07;;
14903;SDS011;7543;53.148;8.234;2023-04-03T15:39:07;1.27;;;0.63;;
14903;SDS011;7543;53.148;8.234;2023-04-03T15:41:36;3.40;;;1.10;;
14903;SDS011;7543;53.148;8.234;2023-04-03T15:44:05;1.40;;;0.77;;
14903;SDS011;7543;53.148;8.234;2023-04-03T15:46:34;1.37;;;0.70;;
14903;SDS011;7543;53.148;8.234;2023-04-03T15:49:02;1.43;;;0.90;;
14903;SDS011;7543;53.148;8.234;2023-04-03T15:51:30;1.73;;;1.10;;
14903;SDS011;7543;53.148;8.234;2023-04-03T15:53:59;1.20;;;0.90;;
14903;SDS011;7543;53.148;8.234;2023-04-03T15:56:27;1.80;;;1.00;;